USTRANSCOM 7521


KCOF
Patrick Air Force Base
Cocoa Beach, Florida, US
KWRI
Joint Base McGuire Dix Lakehurst
Wrightstown, New Jersey, US

Route Details

Aircraft Information
Primary: Boeing 757-200SF
Backup: Not Available
Route Data
Distance: 768nm
Sched. Duration: 1h 55m
Avg. Duration: 1h 83m (+29m)
Times Flown: 4
Recm'd Route: APOLO ETECK AR18 DIW J174 SWL J121 SIE V44 PANZE V184 ZIGGI
Planned Altitude: 39,000ft
Origin Wx: KCOF 282056Z AUTO 28010KT 10SM CLR 18/01 A3018 RMK AO2 SLP225 T01760007 57018 $
Dest. Wx: KWRI 282156Z AUTO 26011KT 10SM FEW060 04/M06 A2981 RMK AO2 PK WND 26030/2057 SLP096 T00421056 $
Notes: USTRANSCOM CONTRACT FLIGHT

Financial History
Total Freight: 163,928lbs
Average Load: 40,982lbs/flt
Fuel Used: 63,204lbs
Avg. Fuel Used: 15,801lbs/flt
Fuel Expense: $56,085
Avg. Fuel Expense: $14,021
Avg. Fuel Cost: $0.89/lbs
Total Gross Income: $227,860
Pilot Pay: $916
Total Expenses: $24,817
Total Revenue: $145,010
Average Revenue: $56,964.98